Time;durP1;ratioP1;P1;durP2;ratioP2;P2;SDS_P1;SDS_P2;PMS_P1;PMS_P2;Temp;Humidity;BMP_temperature;BMP_pressure;BME280_temperature;BME280_humidity;BME280_pressure;Samples;Min_cycle;Max_cycle;Signal;HPM_P1;HPM_P2
2021/08/12 00:01:12;;;;;;;13.93;11.55;;;17.50;99.90;;;;;;6297109;28;20036;-85
2021/08/12 00:04:17;;;;;;;16.92;12.38;;;17.50;99.90;;;;;;6296474;28;20509;-85
2021/08/12 00:07:18;;;;;;;14.73;11.90;;;17.60;99.90;;;;;;6298910;28;20020;-85
2021/08/12 00:10:19;;;;;;;19.80;12.88;;;;;;;;;;6283348;28;20105;-83
2021/08/12 00:13:20;;;;;;;13.00;11.32;;;17.60;99.90;;;;;;6310422;28;20056;-83
2021/08/12 00:16:20;;;;;;;19.65;12.23;;;17.60;99.90;;;;;;6295747;28;20031;-82
2021/08/12 00:19:21;;;;;;;12.80;11.20;;;17.60;99.90;;;;;;6283447;28;20032;-84
2021/08/12 00:22:22;;;;;;;16.88;11.68;;;;;;;;;;6291955;28;20043;-85
2021/08/12 00:25:22;;;;;;;13.40;11.13;;;16.90;99.90;;;;;;6290239;28;20370;-86
2021/08/12 00:28:23;;;;;;;15.48;11.43;;;17.40;99.90;;;;;;6280208;28;20029;-83
2021/08/12 00:31:24;;;;;;;12.52;10.95;;;17.30;99.90;;;;;;6280327;28;20041;-83
2021/08/12 00:34:24;;;;;;;14.60;10.93;;;17.20;99.90;;;;;;6277923;28;20351;-88
2021/08/12 00:37:25;;;;;;;15.10;10.90;;;17.20;99.90;;;;;;6267984;28;20144;-85
2021/08/12 00:40:26;;;;;;;15.52;11.80;;;;;;;;;;6298728;28;20035;-86
2021/08/12 00:43:26;;;;;;;13.70;10.95;;;17.10;99.90;;;;;;6292967;28;20020;-83
2021/08/12 00:46:27;;;;;;;17.13;12.70;;;17.20;99.90;;;;;;6283510;28;20024;-83
2021/08/12 00:49:28;;;;;;;12.55;11.25;;;16.80;99.90;;;;;;6265075;28;20088;-84
2021/08/12 00:52:28;;;;;;;14.45;11.88;;;16.70;99.90;;;;;;6270339;28;20062;-84
2021/08/12 00:55:29;;;;;;;14.13;11.55;;;17.00;99.90;;;;;;6281225;28;20035;-86
2021/08/12 00:58:32;;;;;;;13.35;11.38;;;16.80;99.90;;;;;;6270024;28;20032;-85
2021/08/12 01:01:32;;;;;;;17.15;11.52;;;16.80;99.90;;;;;;6291481;28;20028;-86
2021/08/12 01:04:33;;;;;;;38.47;12.80;;;;;;;;;;6277448;28;20024;-87
2021/08/12 01:08:03;;;;;;;13.63;11.75;;;16.70;99.90;;;;;;6298764;28;20008;-85
2021/08/12 01:11:43;;;;;;;15.10;12.00;;;17.00;99.90;;;;;;6289323;28;20126;-86
2021/08/12 01:15:01;;;;;;;14.35;10.52;;;16.90;99.90;;;;;;6296538;28;20028;-84
2021/08/12 01:18:18;;;;;;;14.82;11.02;;;17.10;99.90;;;;;;6302559;28;20077;-85
2021/08/12 01:21:57;;;;;;;15.65;11.50;;;17.10;99.90;;;;;;6304193;28;20089;-83
2021/08/12 01:24:59;;;;;;;13.75;10.93;;;17.10;99.90;;;;;;6260593;28;20033;-83
2021/08/12 01:28:07;;;;;;;14.23;10.70;;;17.10;99.90;;;;;;6228111;28;20038;-86
2021/08/12 01:31:25;;;;;;;12.43;10.75;;;17.00;99.90;;;;;;6263998;28;20052;-83
2021/08/12 01:34:45;;;;;;;15.90;11.48;;;17.30;99.90;;;;;;6268858;28;20056;-83
2021/08/12 01:37:55;;;;;;;12.77;11.48;;;17.30;99.90;;;;;;6266326;28;20114;-85
2021/08/12 01:40:56;;;;;;;12.45;9.95;;;17.20;99.90;;;;;;6228468;28;20411;-83
2021/08/12 01:43:57;;;;;;;12.65;11.32;;;17.20;99.90;;;;;;6262381;28;20036;-83
2021/08/12 01:46:58;;;;;;;13.02;10.82;;;17.10;99.90;;;;;;6260168;28;20125;-82
2021/08/12 01:50:02;;;;;;;12.07;10.70;;;16.90;99.90;;;;;;6218421;28;20028;-86
2021/08/12 01:53:03;;;;;;;13.45;11.55;;;16.80;99.90;;;;;;6251130;28;20052;-83
2021/08/12 01:56:03;;;;;;;13.30;11.30;;;16.60;99.90;;;;;;6243360;28;20038;-83
2021/08/12 01:59:04;;;;;;;13.55;11.27;;;17.00;99.90;;;;;;6241880;28;20045;-84
2021/08/12 02:02:05;;;;;;;13.63;11.35;;;16.70;99.90;;;;;;6301053;28;20032;-83
2021/08/12 02:05:10;;;;;;;11.87;10.47;;;16.50;99.90;;;;;;6268953;28;20036;-83
2021/08/12 02:08:10;;;;;;;13.80;10.60;;;16.80;99.90;;;;;;6282523;28;20028;-88
2021/08/12 02:11:11;;;;;;;13.98;11.48;;;16.40;99.90;;;;;;6270234;28;20406;-83
2021/08/12 02:14:12;;;;;;;12.85;11.45;;;16.10;99.90;;;;;;6302823;28;20103;-84
2021/08/12 02:17:13;;;;;;;14.30;11.10;;;;;;;;;;6254758;28;20152;-84
2021/08/12 02:20:14;;;;;;;15.48;11.77;;;16.40;99.90;;;;;;6281136;28;20451;-82
2021/08/12 02:23:20;;;;;;;13.98;10.40;;;16.50;99.90;;;;;;6295708;28;20084;-85
2021/08/12 02:26:21;;;;;;;12.38;10.50;;;16.50;99.90;;;;;;6294849;28;20033;-86
2021/08/12 02:29:21;;;;;;;14.27;10.00;;;16.60;99.90;;;;;;6282182;28;20062;-87
2021/08/12 02:32:25;;;;;;;12.70;10.85;;;16.60;99.90;;;;;;6285444;28;20032;-84
2021/08/12 02:35:26;;;;;;;10.85;9.68;;;16.70;99.90;;;;;;6270148;28;20016;-84
2021/08/12 02:38:27;;;;;;;13.45;10.75;;;16.80;99.90;;;;;;6278520;28;20091;-85
2021/08/12 02:41:27;;;;;;;11.18;9.88;;;16.60;99.90;;;;;;6278070;28;20043;-84
2021/08/12 02:44:29;;;;;;;14.10;10.70;;;16.70;99.90;;;;;;6301673;28;20077;-83
2021/08/12 02:47:30;;;;;;;13.07;10.57;;;16.80;99.90;;;;;;6302690;28;20362;-82
2021/08/12 02:50:30;;;;;;;11.55;10.35;;;16.60;99.90;;;;;;6276296;28;20556;-84
2021/08/12 02:53:32;;;;;;;15.38;10.65;;;16.60;99.90;;;;;;6259892;28;20039;-84
2021/08/12 02:56:34;;;;;;;13.27;11.98;;;16.40;99.90;;;;;;6286102;28;20036;-83
2021/08/12 02:59:35;;;;;;;15.65;11.38;;;16.20;99.90;;;;;;6246459;28;20101;-83
2021/08/12 03:02:36;;;;;;;11.35;10.15;;;16.20;99.90;;;;;;6283538;28;20769;-84
2021/08/12 03:05:37;;;;;;;12.75;11.07;;;16.20;99.90;;;;;;6274273;28;20080;-88
2021/08/12 03:08:38;;;;;;;14.15;11.30;;;16.20;99.90;;;;;;6280798;28;20077;-87
2021/08/12 03:11:39;;;;;;;14.35;12.00;;;;;;;;;;6299257;28;20040;-86
2021/08/12 03:14:40;;;;;;;13.30;11.85;;;16.10;99.90;;;;;;6296156;28;20020;-84
2021/08/12 03:17:41;;;;;;;15.30;11.65;;;16.10;99.90;;;;;;6284630;28;20028;-83
2021/08/12 03:20:42;;;;;;;13.38;11.45;;;16.10;99.90;;;;;;6286034;28;20067;-83
2021/08/12 03:23:43;;;;;;;13.73;11.15;;;;;;;;;;6266441;28;20101;-83
2021/08/12 03:26:44;;;;;;;13.40;10.77;;;16.10;99.90;;;;;;6298797;28;20434;-83
2021/08/12 03:29:45;;;;;;;13.23;11.02;;;16.10;99.90;;;;;;6266128;28;20612;-85
2021/08/12 03:32:45;;;;;;;16.17;11.60;;;16.20;99.90;;;;;;6283322;28;20386;-84
2021/08/12 03:35:46;;;;;;;14.05;10.88;;;16.10;99.90;;;;;;6276903;28;20116;-86
2021/08/12 03:38:47;;;;;;;15.95;12.18;;;16.30;99.90;;;;;;6300951;28;20408;-83
2021/08/12 03:41:47;;;;;;;14.73;10.82;;;16.10;99.90;;;;;;6276592;28;20063;-84
2021/08/12 03:44:48;;;;;;;13.82;10.98;;;16.30;99.90;;;;;;6294510;28;20032;-86
2021/08/12 03:47:48;;;;;;;12.80;10.70;;;16.30;99.90;;;;;;6281737;28;20017;-84
2021/08/12 03:50:49;;;;;;;11.45;10.13;;;16.20;99.90;;;;;;6267359;28;20035;-85
2021/08/12 03:53:49;;;;;;;15.90;10.50;;;16.20;99.90;;;;;;6280301;28;20036;-83
2021/08/12 03:56:50;;;;;;;16.67;11.43;;;16.20;99.90;;;;;;6262431;28;20039;-83
2021/08/12 03:59:50;;;;;;;14.43;9.98;;;16.30;99.90;;;;;;6254355;28;20062;-82
2021/08/12 04:02:51;;;;;;;13.00;10.88;;;16.10;99.90;;;;;;6272360;28;20040;-84
2021/08/12 04:05:52;;;;;;;11.20;9.93;;;16.30;99.90;;;;;;6278417;28;20073;-83
2021/08/12 04:08:53;;;;;;;13.15;11.20;;;;;;;;;;6294663;28;20351;-86
2021/08/12 04:11:53;;;;;;;13.43;11.50;;;16.10;99.90;;;;;;6279223;28;20639;-84
2021/08/12 04:14:54;;;;;;;14.95;11.70;;;15.90;99.90;;;;;;6283524;28;20103;-83
2021/08/12 04:17:54;;;;;;;12.38;10.10;;;16.00;99.90;;;;;;6266664;28;20032;-84
2021/08/12 04:20:55;;;;;;;12.43;10.95;;;15.80;99.90;;;;;;6273534;28;20064;-83
2021/08/12 04:23:55;;;;;;;11.68;10.02;;;15.90;99.90;;;;;;6295357;28;20466;-85
2021/08/12 04:26:56;;;;;;;12.25;10.95;;;16.00;99.90;;;;;;6275069;28;20071;-86
2021/08/12 04:29:57;;;;;;;13.77;10.93;;;16.20;99.90;;;;;;6291536;28;20024;-82
2021/08/12 04:32:57;;;;;;;13.18;10.73;;;16.30;99.90;;;;;;6274743;28;20028;-85
2021/08/12 04:35:58;;;;;;;13.23;11.20;;;;;;;;;;6290840;28;20037;-83
2021/08/12 04:38:59;;;;;;;16.25;11.88;;;16.30;99.90;;;;;;6291711;28;20092;-83
2021/08/12 04:41:59;;;;;;;13.65;11.45;;;16.40;99.90;;;;;;6299472;28;20024;-85
2021/08/12 04:45:00;;;;;;;12.70;11.30;;;16.40;99.90;;;;;;6289854;28;20127;-82
2021/08/12 04:48:02;;;;;;;12.68;10.73;;;16.60;99.90;;;;;;6299554;28;20407;-84
2021/08/12 04:51:03;;;;;;;12.47;10.20;;;;;;;;;;6290557;28;20032;-84
2021/08/12 04:54:04;;;;;;;13.00;10.30;;;;;;;;;;6292152;28;20035;-82
2021/08/12 04:57:05;;;;;;;12.40;10.63;;;17.20;99.90;;;;;;6296875;28;20024;-82
2021/08/12 05:00:06;;;;;;;14.83;10.20;;;17.60;99.90;;;;;;6299665;28;20027;-83
2021/08/12 05:03:07;;;;;;;15.40;11.23;;;17.50;99.90;;;;;;6278893;28;20090;-84
2021/08/12 05:06:10;;;;;;;13.02;10.30;;;17.90;99.90;;;;;;6270167;28;20424;-82
2021/08/12 05:09:11;;;;;;;12.40;11.10;;;18.00;99.90;;;;;;6258855;28;20454;-86
2021/08/12 05:12:12;;;;;;;13.13;10.02;;;18.00;99.90;;;;;;6247281;28;20117;-85
2021/08/12 05:15:12;;;;;;;12.48;10.35;;;18.10;99.90;;;;;;6291314;28;20099;-84
2021/08/12 05:18:13;;;;;;;13.10;9.85;;;;;;;;;;6277337;28;20039;-85
2021/08/12 05:21:14;;;;;;;13.00;10.10;;;;;;;;;;6269319;28;20039;-85
2021/08/12 05:24:15;;;;;;;11.88;9.10;;;18.90;99.90;;;;;;6262403;28;20021;-84
2021/08/12 05:27:16;;;;;;;11.25;10.05;;;19.20;99.90;;;;;;6291208;28;20385;-81
2021/08/12 05:30:16;;;;;;;13.52;10.35;;;19.20;99.90;;;;;;6297147;28;20032;-83
2021/08/12 05:33:17;;;;;;;12.38;9.70;;;19.50;99.90;;;;;;6297840;28;20151;-85
2021/08/12 05:40:15;;;;;;;11.90;10.02;;;19.50;99.90;;;;;;6316715;28;20032;-82
2021/08/12 05:43:15;;;;;;;14.45;8.95;;;19.60;99.90;;;;;;6272221;28;20035;-82
2021/08/12 05:46:16;;;;;;;11.43;9.35;;;19.50;99.90;;;;;;6306389;28;20024;-82
2021/08/12 05:49:16;;;;;;;11.05;9.82;;;19.30;99.90;;;;;;6275987;28;20444;-82
2021/08/12 05:52:17;;;;;;;14.80;9.82;;;19.20;99.90;;;;;;6295920;28;20043;-82
2021/08/12 05:55:17;;;;;;;15.30;10.73;;;19.60;99.90;;;;;;6309105;28;20115;-82
2021/08/12 05:58:18;;;;;;;11.50;9.65;;;20.30;99.90;;;;;;6296453;28;20750;-83
2021/08/12 06:01:19;;;;;;;15.13;9.75;;;20.80;99.90;;;;;;6294567;28;20457;-82
2021/08/12 06:04:19;;;;;;;11.45;9.02;;;21.50;99.90;;;;;;6260771;28;20172;-81
2021/08/12 06:07:20;;;;;;;10.35;9.27;;;22.10;99.90;;;;;;6282252;28;20364;-82
2021/08/12 06:10:21;;;;;;;10.05;9.00;;;22.50;99.90;;;;;;6302006;28;20024;-82
2021/08/12 06:13:22;;;;;;;11.43;8.63;;;23.20;99.90;;;;;;6319275;28;20097;-84
2021/08/12 06:16:22;;;;;;;9.55;8.57;;;23.70;99.90;;;;;;6302668;28;20105;-85
2021/08/12 06:19:23;;;;;;;10.52;9.43;;;24.10;99.90;;;;;;6302276;28;20020;-86
2021/08/12 06:22:23;;;;;;;9.80;8.43;;;24.40;99.90;;;;;;6277307;28;20056;-83
2021/08/12 06:25:24;;;;;;;10.73;9.40;;;24.60;99.90;;;;;;6302248;28;20073;-84
2021/08/12 06:28:25;;;;;;;9.07;8.10;;;24.70;99.90;;;;;;6302662;28;20035;-87
2021/08/12 06:31:25;;;;;;;11.60;10.00;;;25.10;99.90;;;;;;6279981;28;20032;-88
2021/08/12 06:34:26;;;;;;;10.55;9.25;;;;;;;;;;6272895;28;20112;-79
2021/08/12 06:37:30;;;;;;;10.07;8.85;;;25.10;97.70;;;;;;6315053;28;20098;-83
2021/08/12 06:40:31;;;;;;;9.75;8.45;;;25.40;98.50;;;;;;6296606;28;20020;-82
2021/08/12 06:43:32;;;;;;;10.07;8.77;;;25.60;98.00;;;;;;6294929;28;20207;-80
2021/08/12 06:46:34;;;;;;;15.10;10.30;;;25.90;97.60;;;;;;6294038;28;20029;-82
2021/08/12 06:49:34;;;;;;;11.00;8.15;;;26.30;97.10;;;;;;6272152;28;20024;-88
2021/08/12 06:53:25;;;;;;;9.07;8.07;;;26.80;97.40;;;;;;6280002;28;20485;-92
2021/08/12 06:56:28;;;;;;;11.13;8.73;;;27.30;99.90;;;;;;6314603;28;20017;-91
2021/08/12 06:59:35;;;;;;;11.25;8.73;;;;;;;;;;6274740;28;20063;-91
2021/08/12 07:02:36;;;;;;;10.60;8.40;;;;;;;;;;6274639;28;20023;-90
2021/08/12 07:05:37;;;;;;;10.48;8.43;;;;;;;;;;6273475;28;20044;-90
2021/08/12 07:08:39;;;;;;;10.65;8.20;;;28.20;93.20;;;;;;6210594;28;20105;-90
2021/08/12 07:15:37;;;;;;;9.27;8.35;;;;;;;;;;6226034;28;20025;-90
2021/08/12 07:18:41;;;;;;;9.50;8.50;;;;;;;;;;6198131;28;20091;-90
2021/08/12 07:21:42;;;;;;;10.52;8.50;;;;;;;;;;6217602;28;20480;-90
2021/08/12 07:24:44;;;;;;;9.35;8.15;;;;;;;;;;6196747;28;20579;-90
2021/08/12 07:28:40;;;;;;;9.77;8.77;;;31.50;88.40;;;;;;6212959;28;20494;-91
2021/08/12 07:31:41;;;;;;;9.70;8.70;;;;;;;;;;6166440;28;20073;-90
2021/08/12 07:34:42;;;;;;;9.32;8.43;;;32.20;77.20;;;;;;6172016;28;20033;-88
2021/08/12 07:37:42;;;;;;;10.77;8.32;;;32.40;79.10;;;;;;6137814;28;20506;-87
2021/08/12 07:40:43;;;;;;;12.27;9.00;;;;;;;;;;6145810;28;20046;-89
2021/08/12 07:43:44;;;;;;;10.63;9.52;;;32.70;81.10;;;;;;6167120;28;20087;-87
2021/08/12 07:46:45;;;;;;;10.50;8.52;;;32.90;95.20;;;;;;6203948;28;20037;-89
2021/08/12 07:49:46;;;;;;;10.93;9.30;;;;;;;;;;6197051;28;20029;-88
2021/08/12 07:53:20;;;;;;;9.68;8.68;;;32.70;82.60;;;;;;6226772;28;20036;-88
2021/08/12 07:56:21;;;;;;;9.25;8.35;;;;;;;;;;6221235;28;20087;-85
2021/08/12 07:59:22;;;;;;;9.95;8.95;;;32.60;95.20;;;;;;6228464;28;20037;-86
2021/08/12 08:02:22;;;;;;;9.83;8.30;;;32.60;94.40;;;;;;6231191;28;20095;-85
2021/08/12 08:05:24;;;;;;;9.40;8.47;;;33.10;75.00;;;;;;6215948;28;21096;-85
2021/08/12 08:08:24;;;;;;;10.50;8.63;;;33.50;93.60;;;;;;6239210;28;20458;-85
2021/08/12 08:11:25;;;;;;;10.60;8.90;;;;;;;;;;6235928;28;20143;-86
2021/08/12 08:14:26;;;;;;;12.07;9.20;;;;;;;;;;6251928;28;20017;-87
2021/08/12 08:17:27;;;;;;;12.15;9.43;;;33.80;92.50;;;;;;6235393;28;20144;-87
2021/08/12 08:20:28;;;;;;;11.75;8.93;;;;;;;;;;6273648;28;20028;-87
2021/08/12 08:23:28;;;;;;;10.30;8.90;;;33.50;74.00;;;;;;6249192;28;20031;-88
2021/08/12 08:26:29;;;;;;;10.05;9.07;;;34.10;76.80;;;;;;6267924;28;20438;-85
2021/08/12 08:29:30;;;;;;;10.00;8.77;;;;;;;;;;6273263;28;20040;-87
2021/08/12 08:32:32;;;;;;;10.07;8.85;;;34.50;80.30;;;;;;6254887;28;20134;-85
2021/08/12 08:35:34;;;;;;;10.98;9.10;;;34.30;67.10;;;;;;6251545;28;20152;-87
2021/08/12 08:38:35;;;;;;;13.52;8.93;;;34.70;68.00;;;;;;6276584;28;20048;-87
2021/08/12 08:41:35;;;;;;;10.80;9.70;;;34.70;68.00;;;;;;6273634;28;20162;-87
2021/08/12 08:44:36;;;;;;;12.27;8.82;;;34.70;68.50;;;;;;6287410;28;20085;-86
2021/08/12 08:47:37;;;;;;;11.75;8.93;;;34.60;67.10;;;;;;6268036;28;20024;-85
2021/08/12 08:50:37;;;;;;;10.85;9.13;;;34.70;66.30;;;;;;6286962;28;20039;-86
2021/08/12 08:53:39;;;;;;;10.15;9.15;;;34.70;66.20;;;;;;6266094;28;20557;-85
2021/08/12 08:56:40;;;;;;;9.57;8.68;;;34.80;66.90;;;;;;6273650;28;20090;-85
2021/08/12 08:59:40;;;;;;;10.60;9.50;;;34.90;65.80;;;;;;6276485;28;20031;-86
2021/08/12 09:02:41;;;;;;;10.55;9.45;;;34.70;66.40;;;;;;6263995;28;20534;-85
2021/08/12 09:05:42;;;;;;;11.10;9.35;;;34.70;66.80;;;;;;6286226;28;20055;-87
2021/08/12 09:08:42;;;;;;;11.93;9.38;;;34.80;67.70;;;;;;6288731;28;20043;-84
2021/08/12 09:11:43;;;;;;;9.90;8.90;;;34.80;66.90;;;;;;6270076;28;20048;-83
2021/08/12 09:14:43;;;;;;;11.65;9.50;;;34.80;66.80;;;;;;6259652;28;20029;-86
2021/08/12 09:17:44;;;;;;;9.75;8.75;;;34.70;67.30;;;;;;6270482;28;20020;-85
2021/08/12 09:20:46;;;;;;;11.10;9.55;;;34.80;66.50;;;;;;6271886;28;20033;-84
2021/08/12 09:23:58;;;;;;;9.95;8.95;;;34.90;67.70;;;;;;6284736;28;20027;-85
2021/08/12 09:26:59;;;;;;;11.27;8.68;;;35.10;67.90;;;;;;6290674;28;20024;-83
2021/08/12 09:30:14;;;;;;;11.95;9.50;;;35.00;67.20;;;;;;6273139;28;20374;-84
2021/08/12 09:33:16;;;;;;;13.30;9.95;;;34.90;66.60;;;;;;6266285;28;20070;-84
2021/08/12 09:36:24;;;;;;;10.18;9.07;;;35.00;66.90;;;;;;6291638;28;20062;-85
2021/08/12 09:39:24;;;;;;;9.77;8.77;;;35.00;65.30;;;;;;6273272;28;20033;-87
2021/08/12 09:42:25;;;;;;;;;;;34.80;66.70;;;;;;6275925;28;20331;-84
2021/08/12 09:45:26;;;;;;;14.73;9.40;;;35.10;65.40;;;;;;6273153;28;20262;-88
2021/08/12 09:48:29;;;;;;;;;;;35.30;65.60;;;;;;6286365;28;20031;-84
2021/08/12 09:51:33;;;;;;;10.65;9.20;;;35.50;65.50;;;;;;6286701;28;19908;-85
2021/08/12 09:54:35;;;;;;;11.32;9.60;;;35.60;64.60;;;;;;6265319;28;20032;-85
2021/08/12 09:57:42;;;;;;;11.48;8.48;;;35.90;63.30;;;;;;6287039;28;20051;-84
2021/08/12 10:00:46;;;;;;;10.40;9.23;;;35.70;63.00;;;;;;6287221;28;20027;-85
2021/08/12 10:03:50;;;;;;;12.43;9.48;;;35.70;63.90;;;;;;6300871;28;20032;-85
2021/08/12 10:06:50;;;;;;;10.45;8.98;;;35.70;65.90;;;;;;6282453;28;20028;-85
2021/08/12 10:09:51;;;;;;;;;;;35.50;64.30;;;;;;6299395;28;20032;-87
2021/08/12 10:12:53;;;;;;;9.17;8.27;;;35.70;65.30;;;;;;6262419;28;19927;-85
2021/08/12 10:15:54;;;;;;;9.55;8.65;;;35.70;64.20;;;;;;6265093;28;20657;-85
2021/08/12 10:18:55;;;;;;;;;;;35.70;63.60;;;;;;6298626;28;20059;-85
2021/08/12 10:21:56;;;;;;;10.98;8.85;;;35.50;87.10;;;;;;6286464;28;19909;-84
2021/08/12 10:24:56;;;;;;;;;;;35.70;64.00;;;;;;6292974;28;20377;-83
2021/08/12 10:28:01;;;;;;;11.30;8.40;;;35.70;88.20;;;;;;6286994;28;19904;-86
2021/08/12 10:31:02;;;;;;;9.60;8.43;;;35.80;63.00;;;;;;6280123;28;20373;-85
2021/08/12 10:34:03;;;;;;;9.18;8.10;;;35.90;64.40;;;;;;6278212;28;20457;-84
2021/08/12 10:37:16;;;;;;;9.82;8.50;;;35.50;68.60;;;;;;6280946;28;20041;-86
2021/08/12 10:40:17;;;;;;;10.85;9.02;;;;;;;;;;6266258;28;20071;-89
2021/08/12 10:43:25;;;;;;;;;;;35.30;68.90;;;;;;6294755;28;20033;-88
2021/08/12 10:46:36;;;;;;;11.20;9.68;;;35.30;65.50;;;;;;6289633;28;19919;-89
2021/08/12 10:49:39;;;;;;;9.60;8.60;;;;;;;;;;6275310;28;20115;-87
2021/08/12 10:53:12;;;;;;;9.57;8.68;;;35.00;70.80;;;;;;6277846;28;20102;-86
2021/08/12 10:56:15;;;;;;;9.38;8.38;;;34.60;65.40;;;;;;6265775;28;20435;-82
2021/08/12 10:59:16;;;;;;;11.38;8.90;;;;;;;;;;6278194;28;20060;-86
2021/08/12 11:02:29;;;;;;;;;;;34.50;70.50;;;;;;6277117;28;20031;-86
2021/08/12 11:06:01;;;;;;;13.60;9.18;;;34.20;75.00;;;;;;6297903;28;19909;-84
2021/08/12 11:09:04;;;;;;;10.20;8.75;;;;;;;;;;6309647;28;20077;-88
2021/08/12 11:12:05;;;;;;;11.63;9.05;;;34.40;72.70;;;;;;6275569;28;20024;-87
2021/08/12 11:15:05;;;;;;;;;;;34.30;75.20;;;;;;6254642;28;20084;-89
2021/08/12 11:18:11;;;;;;;11.32;9.25;;;34.30;70.30;;;;;;6276129;28;19908;-89
2021/08/12 11:21:30;;;;;;;12.23;9.77;;;34.20;68.20;;;;;;6269140;28;20033;-87
2021/08/12 11:24:48;;;;;;;10.00;8.82;;;33.80;68.20;;;;;;6299543;28;20036;-86
2021/08/12 11:27:48;;;;;;;10.57;9.45;;;33.40;70.20;;;;;;6267862;28;20056;-88
2021/08/12 11:30:49;;;;;;;10.90;9.05;;;33.40;70.60;;;;;;6272144;28;20026;-87
2021/08/12 11:33:50;;;;;;;;;;;33.70;71.10;;;;;;6274373;28;20044;-89
2021/08/12 11:37:11;;;;;;;12.45;9.57;;;33.60;71.50;;;;;;6279962;28;19928;-89
2021/08/12 11:40:12;;;;;;;10.85;9.30;;;;;;;;;;6279665;28;20040;-89
2021/08/12 11:43:14;;;;;;;14.23;9.07;;;33.70;70.40;;;;;;6271591;28;20028;-87
2021/08/12 11:46:15;;;;;;;10.05;9.13;;;33.70;71.70;;;;;;6278770;28;20428;-87
2021/08/12 11:49:17;;;;;;;10.45;9.45;;;33.40;92.20;;;;;;6271491;28;20017;-88
2021/08/12 11:52:31;;;;;;;10.82;9.68;;;33.50;71.60;;;;;;6285455;28;20040;-90
2021/08/12 11:55:32;;;;;;;10.80;9.65;;;;;;;;;;6275972;28;20032;-88
2021/08/12 11:58:33;;;;;;;10.23;9.23;;;33.80;69.20;;;;;;6271574;28;20166;-88
2021/08/12 12:01:34;;;;;;;10.27;9.13;;;33.60;83.20;;;;;;6287287;28;20389;-87
2021/08/12 12:04:35;;;;;;;11.02;9.85;;;;;;;;;;6275231;28;20034;-88
2021/08/12 12:07:46;;;;;;;13.95;8.80;;;33.70;74.20;;;;;;6268184;28;20472;-88
2021/08/12 12:10:47;;;;;;;12.10;9.65;;;;;;;;;;6273483;28;20482;-89
2021/08/12 12:13:47;;;;;;;;;;;33.60;75.60;;;;;;6276257;28;20021;-88
2021/08/12 12:17:13;;;;;;;10.83;8.93;;;33.50;79.10;;;;;;6277265;28;19904;-89
2021/08/12 12:20:15;;;;;;;9.52;8.63;;;33.30;78.20;;;;;;6298198;28;20028;-86
2021/08/12 12:23:18;;;;;;;13.43;10.30;;;;;;;;;;6272328;28;20450;-88
2021/08/12 12:26:27;;;;;;;11.40;9.25;;;33.30;77.60;;;;;;6268827;28;20407;-87
2021/08/12 12:29:28;;;;;;;14.77;9.18;;;;;;;;;;6274796;28;20442;-86
2021/08/12 12:32:28;;;;;;;12.35;9.55;;;32.70;92.90;;;;;;6283146;28;20036;-87
2021/08/12 12:35:30;;;;;;;10.57;9.43;;;32.70;82.00;;;;;;6282469;28;20028;-87
2021/08/12 12:38:32;;;;;;;10.38;9.27;;;32.70;82.70;;;;;;6280230;28;20497;-86
2021/08/12 12:41:32;;;;;;;12.88;9.75;;;32.90;75.10;;;;;;6277669;28;20124;-85
2021/08/12 12:44:33;;;;;;;9.82;8.88;;;32.80;74.00;;;;;;6258954;28;20189;-84
2021/08/12 12:47:34;;;;;;;12.05;9.50;;;32.70;73.00;;;;;;6283586;28;20028;-86
2021/08/12 12:50:42;;;;;;;;;;;32.70;76.00;;;;;;6274099;28;20036;-88
2021/08/12 12:53:43;;;;;;;10.48;9.43;;;32.60;74.30;;;;;;6285185;28;20911;-85
2021/08/12 12:56:44;;;;;;;10.52;9.30;;;;;;;;;;6253368;28;20027;-86
2021/08/12 12:59:51;;;;;;;10.70;9.48;;;32.50;74.10;;;;;;6297093;28;20107;-87
2021/08/12 13:02:53;;;;;;;13.75;9.30;;;32.70;77.50;;;;;;6267524;28;20032;-87
2021/08/12 13:05:58;;;;;;;11.43;9.73;;;32.60;78.70;;;;;;6282125;28;20470;-87
2021/08/12 13:08:59;;;;;;;13.00;9.75;;;32.70;74.70;;;;;;6271565;28;20059;-88
2021/08/12 13:11:59;;;;;;;11.10;9.98;;;32.70;77.80;;;;;;6287198;28;20626;-86
2021/08/12 13:15:14;;;;;;;11.32;9.70;;;32.70;76.10;;;;;;6282439;28;20036;-84
2021/08/12 13:18:14;;;;;;;9.95;8.95;;;32.60;74.50;;;;;;6268139;28;20085;-84
2021/08/12 13:21:29;;;;;;;9.57;8.65;;;32.60;76.80;;;;;;6267689;28;20028;-84
2021/08/12 13:24:40;;;;;;;9.77;8.63;;;32.60;75.50;;;;;;6298535;28;20359;-84
2021/08/12 13:27:42;;;;;;;;;;;32.60;76.60;;;;;;6291480;28;20055;-84
2021/08/12 13:30:42;;;;;;;9.48;8.48;;;32.60;76.00;;;;;;6258289;28;20346;-84
2021/08/12 13:33:43;;;;;;;11.35;10.15;;;32.70;74.80;;;;;;6280321;28;20028;-84
2021/08/12 13:36:44;;;;;;;10.93;8.70;;;32.60;73.60;;;;;;6298844;28;20056;-83
2021/08/12 13:39:45;;;;;;;12.82;8.88;;;32.60;73.40;;;;;;6281895;28;20024;-84
2021/08/12 13:42:46;;;;;;;10.50;8.65;;;32.60;73.10;;;;;;6281914;28;20036;-83
2021/08/12 13:45:47;;;;;;;11.07;9.50;;;32.40;75.30;;;;;;6315853;28;20077;-87
2021/08/12 13:48:47;;;;;;;11.50;9.27;;;32.50;73.20;;;;;;6281973;28;20129;-84
2021/08/12 13:51:52;;;;;;;10.07;8.93;;;32.60;75.50;;;;;;6278304;28;20041;-83
2021/08/12 13:54:52;;;;;;;9.00;8.13;;;32.60;71.70;;;;;;6285264;28;20040;-83
2021/08/12 13:57:54;;;;;;;10.60;9.50;;;32.60;72.50;;;;;;6263723;28;20032;-84
2021/08/12 14:00:55;;;;;;;11.48;9.40;;;32.60;73.80;;;;;;6280974;28;20025;-84
2021/08/12 14:03:55;;;;;;;10.18;8.45;;;32.70;75.10;;;;;;6273644;28;20071;-85
2021/08/12 14:06:56;;;;;;;10.60;8.93;;;32.70;76.50;;;;;;6267437;28;20074;-85
2021/08/12 14:09:57;;;;;;;11.15;8.80;;;32.70;74.90;;;;;;6258036;28;20082;-86
2021/08/12 14:12:57;;;;;;;9.27;8.38;;;32.60;75.60;;;;;;6274380;28;20202;-86
2021/08/12 14:15:58;;;;;;;9.60;8.65;;;32.50;74.90;;;;;;6257975;28;20025;-85
2021/08/12 14:18:59;;;;;;;9.77;8.32;;;32.50;74.80;;;;;;6282723;28;20869;-84
2021/08/12 14:22:00;;;;;;;10.18;9.05;;;32.50;74.10;;;;;;6262178;28;20036;-85
2021/08/12 14:25:01;;;;;;;11.07;8.65;;;32.50;73.70;;;;;;6262358;28;20039;-85
2021/08/12 14:28:01;;;;;;;10.80;9.32;;;32.40;75.30;;;;;;6303282;28;20457;-84
2021/08/12 14:31:03;;;;;;;9.27;8.38;;;32.40;76.70;;;;;;6278700;28;20067;-86
2021/08/12 14:34:04;;;;;;;10.90;8.85;;;32.40;75.70;;;;;;6278512;28;20036;-85
2021/08/12 14:37:04;;;;;;;12.85;9.00;;;32.20;74.20;;;;;;6236095;28;20091;-85
2021/08/12 14:40:08;;;;;;;10.05;9.02;;;32.20;75.30;;;;;;6242450;28;20581;-85
2021/08/12 14:43:08;;;;;;;10.15;8.43;;;32.20;76.70;;;;;;6257118;28;20033;-84
2021/08/12 14:46:09;;;;;;;21.85;9.57;;;32.20;74.10;;;;;;6227900;28;20033;-85
2021/08/12 14:49:09;;;;;;;10.15;9.02;;;32.20;74.40;;;;;;6236350;28;20032;-83
2021/08/12 14:52:10;;;;;;;10.55;8.85;;;32.30;74.70;;;;;;6268086;28;20049;-84
2021/08/12 14:55:11;;;;;;;10.95;8.63;;;32.20;74.50;;;;;;6253979;28;20414;-84
2021/08/12 14:58:12;;;;;;;9.82;8.60;;;32.20;74.60;;;;;;6248979;28;20030;-85
2021/08/12 15:01:12;;;;;;;9.57;8.48;;;32.20;74.30;;;;;;6232385;28;20443;-84
2021/08/12 15:04:13;;;;;;;12.07;9.20;;;32.10;74.60;;;;;;6235717;28;20025;-83
2021/08/12 15:07:15;;;;;;;11.03;8.23;;;32.00;75.00;;;;;;6252840;28;20039;-84
2021/08/12 15:10:15;;;;;;;11.60;8.60;;;32.00;74.20;;;;;;6242495;28;20344;-85
2021/08/12 15:13:18;;;;;;;10.32;8.32;;;32.00;75.40;;;;;;6276396;28;20044;-84
2021/08/12 15:16:19;;;;;;;10.90;8.80;;;32.00;75.30;;;;;;6246535;28;20136;-82
2021/08/12 15:19:19;;;;;;;15.73;9.60;;;32.00;76.70;;;;;;6242963;28;20048;-85
2021/08/12 15:22:20;;;;;;;13.23;8.57;;;32.00;74.00;;;;;;6252646;28;20044;-85
2021/08/12 15:25:20;;;;;;;17.50;8.68;;;32.00;73.80;;;;;;6245790;28;20060;-84
2021/08/12 15:28:21;;;;;;;13.25;8.60;;;31.90;73.70;;;;;;6225496;28;20033;-85
2021/08/12 15:31:22;;;;;;;10.68;8.88;;;31.80;74.10;;;;;;6228663;28;20510;-86
2021/08/12 15:34:22;;;;;;;9.52;8.52;;;31.90;75.00;;;;;;6251878;28;20032;-84
2021/08/12 15:37:23;;;;;;;14.85;8.98;;;31.90;74.20;;;;;;6255639;28;20052;-89
2021/08/12 15:40:23;;;;;;;11.27;8.30;;;31.90;71.70;;;;;;6260451;28;20024;-88
2021/08/12 15:43:24;;;;;;;9.75;8.68;;;31.80;73.70;;;;;;6252662;28;20029;-88
2021/08/12 15:46:25;;;;;;;9.75;8.27;;;31.80;93.00;;;;;;6287869;28;20036;-88
2021/08/12 15:49:29;;;;;;;11.75;7.88;;;31.60;75.30;;;;;;6268469;28;20087;-87
2021/08/12 15:52:30;;;;;;;9.60;7.80;;;;;;;;;;6264171;28;20036;-87
2021/08/12 15:55:31;;;;;;;10.93;8.02;;;31.60;70.80;;;;;;6272753;28;20029;-85
2021/08/12 15:58:31;;;;;;;9.05;7.97;;;31.60;92.80;;;;;;6283351;28;20509;-85
2021/08/12 16:01:32;;;;;;;10.18;8.20;;;31.50;73.80;;;;;;6265388;28;20051;-87
2021/08/12 16:04:33;;;;;;;11.68;8.27;;;;;;;;;;6269216;28;20381;-83
2021/08/12 16:07:34;;;;;;;12.45;8.25;;;;;;;;;;6272179;28;20020;-83